Clifton, NJ (07011)

3:47 PM EST on November 24, 2014 (GMT -0500)
Albion Park | Change Station
CLOSE
Current Station
Personal Weather Station
Location: Clifton, NJ
Elevation: 215 ft
Nearby Weather Stations
Active Advisory: Winter Storm Watch Active Notice: Public Information Statement

Elev 215 ft 40.89 °N, 74.17 °W | Updated 2 minutes ago

Partly Cloudy
Partly Cloudy
70.6 °F
Feels Like 74 °F
N
2.0
Wind Variable Wind from SSW
Gusts 8.0 mph

Today
High -- | Low -- °F
--% Chance of Precip.
Yesterday
High -- | Low -- °F
Precip. -- in
6:54 AM 4:32 PM
Waxing Crescent, 7% visible
Pressure 29.55 in
Visibility 10.0 miles
Clouds Few 3700 ft
Heat Index 74 °F
Dew Point 61 °F
Humidity 71%
Rainfall 0.95 in
Snow Depth Not available.
UV 1 out of 12
Pollen .10 out of 12
Air Quality Not available.
Flu Activity Not available.
METAR KTEB 241951Z 19016KT 10SM FEW037 22/14 A2955 RMK AO2 SLP007 T02220139

More Conditions Fewer Conditions

Pressure 29.55 in
Visibility 10.0 miles
Clouds Few 3700 ft
Heat Index 74 °F
Dew Point 61 °F
Humidity 71%
Rainfall 0.95 in
Snow Depth Not available.
UV 1 out of 12
Pollen .10 out of 12
Air Quality Not available.
Flu Activity Not available.
METAR KTEB 241951Z 19016KT 10SM FEW037 22/14 A2955 RMK AO2 SLP007 T02220139

More Conditions Fewer Conditions

10-Day Weather Forecast

Almanac

Astronomy

Nov. 24, 2014 Rise Set
Actual Time
Civil Twilight
Nautical Twilight
Astronomical Twilight
Moon
Length of Visible Light
Length of Day
Tomorrow will be .
, % of the Moon is Illuminated

Today's Extremes

State Highs State Lows

Community

WunderPhotos

Upload Photos

1,773,410 photos uploaded!

WunderBlogs® & News

Nearby

Air Quality

  Air Quality AQ Index Pollutant
Not available.

Snow Depth

Station Depth Elevation

Earthquake Activity

City Distance Mag. Time & Date
Minimum magnitude displayed is 2.5.

Coastal Water Temperatures

Place Temperature

Nearby Weather Stations